sensor_id;sensor_type;location;lat;lon;timestamp;temperature;humidity
25628;DHT22;40915;50.826;4.356;2022-09-12T00:01:56;17.10;99.90
25628;DHT22;40915;50.826;4.356;2022-09-12T00:04:22;17.10;99.90
25628;DHT22;40915;50.826;4.356;2022-09-12T00:06:47;17.10;99.90
25628;DHT22;40915;50.826;4.356;2022-09-12T00:09:14;17.00;99.90
25628;DHT22;40915;50.826;4.356;2022-09-12T00:11:42;17.00;99.90
25628;DHT22;40915;50.826;4.356;2022-09-12T00:14:10;17.00;99.90
25628;DHT22;40915;50.826;4.356;2022-09-12T00:16:37;17.00;99.90
25628;DHT22;40915;50.826;4.356;2022-09-12T00:21:32;17.00;99.90
25628;DHT22;40915;50.826;4.356;2022-09-12T00:23:58;17.00;99.90
25628;DHT22;40915;50.826;4.356;2022-09-12T00:26:23;17.00;99.90
25628;DHT22;40915;50.826;4.356;2022-09-12T00:28:49;17.00;99.90
25628;DHT22;40915;50.826;4.356;2022-09-12T00:31:21;17.00;99.90
25628;DHT22;40915;50.826;4.356;2022-09-12T00:33:48;17.00;99.90
25628;DHT22;40915;50.826;4.356;2022-09-12T00:36:19;16.90;99.90
25628;DHT22;40915;50.826;4.356;2022-09-12T00:38:46;17.00;99.90
25628;DHT22;40915;50.826;4.356;2022-09-12T00:41:25;17.00;99.90
25628;DHT22;40915;50.826;4.356;2022-09-12T00:43:54;16.90;99.90
25628;DHT22;40915;50.826;4.356;2022-09-12T00:46:37;16.90;99.90
25628;DHT22;40915;50.826;4.356;2022-09-12T00:49:15;16.90;99.90
25628;DHT22;40915;50.826;4.356;2022-09-12T00:51:52;16.90;99.90
25628;DHT22;40915;50.826;4.356;2022-09-12T00:54:25;16.90;99.90
25628;DHT22;40915;50.826;4.356;2022-09-12T00:56:55;16.90;99.90
25628;DHT22;40915;50.826;4.356;2022-09-12T00:59:27;16.90;99.90
25628;DHT22;40915;50.826;4.356;2022-09-12T01:01:55;16.80;99.90
25628;DHT22;40915;50.826;4.356;2022-09-12T01:04:22;16.80;99.90
25628;DHT22;40915;50.826;4.356;2022-09-12T01:06:49;16.80;99.90
25628;DHT22;40915;50.826;4.356;2022-09-12T01:09:18;16.80;99.90
25628;DHT22;40915;50.826;4.356;2022-09-12T01:11:44;16.80;99.90
25628;DHT22;40915;50.826;4.356;2022-09-12T01:14:11;16.80;99.90
25628;DHT22;40915;50.826;4.356;2022-09-12T01:16:38;16.80;99.90
25628;DHT22;40915;50.826;4.356;2022-09-12T01:24:53;16.70;99.90
25628;DHT22;40915;50.826;4.356;2022-09-12T01:31:07;16.70;99.90
25628;DHT22;40915;50.826;4.356;2022-09-12T01:33:43;16.60;99.90
25628;DHT22;40915;50.826;4.356;2022-09-12T01:39:03;16.70;99.90
25628;DHT22;40915;50.826;4.356;2022-09-12T01:41:41;16.60;99.90
25628;DHT22;40915;50.826;4.356;2022-09-12T01:44:34;16.60;99.90
25628;DHT22;40915;50.826;4.356;2022-09-12T01:47:05;16.60;99.90
25628;DHT22;40915;50.826;4.356;2022-09-12T01:55:18;16.60;99.90
25628;DHT22;40915;50.826;4.356;2022-09-12T01:58:07;16.60;99.90
25628;DHT22;40915;50.826;4.356;2022-09-12T02:00:37;16.60;99.90
25628;DHT22;40915;50.826;4.356;2022-09-12T02:03:19;16.60;99.90
25628;DHT22;40915;50.826;4.356;2022-09-12T02:08:21;16.50;99.90
25628;DHT22;40915;50.826;4.356;2022-09-12T02:10:54;16.50;99.90
25628;DHT22;40915;50.826;4.356;2022-09-12T02:13:46;16.50;99.90
25628;DHT22;40915;50.826;4.356;2022-09-12T02:16:25;16.50;99.90
25628;DHT22;40915;50.826;4.356;2022-09-12T02:18:59;16.50;99.90
25628;DHT22;40915;50.826;4.356;2022-09-12T02:21:29;16.50;99.90
25628;DHT22;40915;50.826;4.356;2022-09-12T02:23:58;16.50;99.90
25628;DHT22;40915;50.826;4.356;2022-09-12T02:26:35;16.50;99.90
25628;DHT22;40915;50.826;4.356;2022-09-12T02:29:03;16.50;99.90
25628;DHT22;40915;50.826;4.356;2022-09-12T02:31:39;16.50;99.90
25628;DHT22;40915;50.826;4.356;2022-09-12T02:39:14;16.40;99.90
25628;DHT22;40915;50.826;4.356;2022-09-12T02:41:45;16.40;99.90
25628;DHT22;40915;50.826;4.356;2022-09-12T02:44:12;16.40;99.90
25628;DHT22;40915;50.826;4.356;2022-09-12T02:46:41;16.40;99.90
25628;DHT22;40915;50.826;4.356;2022-09-12T02:49:08;16.40;99.90
25628;DHT22;40915;50.826;4.356;2022-09-12T02:51:34;16.40;99.90
25628;DHT22;40915;50.826;4.356;2022-09-12T02:54:00;16.40;99.90
25628;DHT22;40915;50.826;4.356;2022-09-12T02:56:29;16.40;99.90
25628;DHT22;40915;50.826;4.356;2022-09-12T02:58:58;16.40;99.90
25628;DHT22;40915;50.826;4.356;2022-09-12T03:09:59;16.40;99.90
25628;DHT22;40915;50.826;4.356;2022-09-12T03:22:56;16.40;99.90
25628;DHT22;40915;50.826;4.356;2022-09-12T03:25:31;16.40;99.90
25628;DHT22;40915;50.826;4.356;2022-09-12T03:28:12;16.40;99.90
25628;DHT22;40915;50.826;4.356;2022-09-12T03:30:44;16.40;99.90
25628;DHT22;40915;50.826;4.356;2022-09-12T03:33:15;16.40;99.90
25628;DHT22;40915;50.826;4.356;2022-09-12T03:35:40;16.40;99.90
25628;DHT22;40915;50.826;4.356;2022-09-12T03:38:07;16.40;99.90
25628;DHT22;40915;50.826;4.356;2022-09-12T03:40:37;16.40;99.90
25628;DHT22;40915;50.826;4.356;2022-09-12T03:43:04;16.30;99.90
25628;DHT22;40915;50.826;4.356;2022-09-12T03:45:29;16.30;99.90
25628;DHT22;40915;50.826;4.356;2022-09-12T03:47:55;16.30;99.90
25628;DHT22;40915;50.826;4.356;2022-09-12T03:50:21;16.30;99.90
25628;DHT22;40915;50.826;4.356;2022-09-12T03:52:47;16.20;99.90
25628;DHT22;40915;50.826;4.356;2022-09-12T03:55:13;16.20;99.90
25628;DHT22;40915;50.826;4.356;2022-09-12T03:57:38;16.20;99.90
25628;DHT22;40915;50.826;4.356;2022-09-12T04:00:05;16.20;99.90
25628;DHT22;40915;50.826;4.356;2022-09-12T04:02:33;16.20;99.90
25628;DHT22;40915;50.826;4.356;2022-09-12T04:04:59;16.20;99.90
25628;DHT22;40915;50.826;4.356;2022-09-12T04:07:24;16.20;99.90
25628;DHT22;40915;50.826;4.356;2022-09-12T04:09:50;16.10;99.90
25628;DHT22;40915;50.826;4.356;2022-09-12T04:12:17;16.20;99.90
25628;DHT22;40915;50.826;4.356;2022-09-12T04:14:43;16.20;99.90
25628;DHT22;40915;50.826;4.356;2022-09-12T04:17:09;16.10;99.90
25628;DHT22;40915;50.826;4.356;2022-09-12T04:19:35;16.10;99.90
25628;DHT22;40915;50.826;4.356;2022-09-12T04:22:00;16.10;99.90
25628;DHT22;40915;50.826;4.356;2022-09-12T04:24:26;16.00;99.90
25628;DHT22;40915;50.826;4.356;2022-09-12T04:26:52;16.00;99.90
25628;DHT22;40915;50.826;4.356;2022-09-12T04:29:17;16.00;99.90
25628;DHT22;40915;50.826;4.356;2022-09-12T04:31:43;16.00;99.90
25628;DHT22;40915;50.826;4.356;2022-09-12T04:34:09;16.00;99.90
25628;DHT22;40915;50.826;4.356;2022-09-12T04:36:35;16.00;99.90
25628;DHT22;40915;50.826;4.356;2022-09-12T04:39:03;16.00;99.90
25628;DHT22;40915;50.826;4.356;2022-09-12T04:41:31;15.90;99.90
25628;DHT22;40915;50.826;4.356;2022-09-12T04:43:59;15.90;99.90
25628;DHT22;40915;50.826;4.356;2022-09-12T04:46:28;15.90;99.90
25628;DHT22;40915;50.826;4.356;2022-09-12T04:48:54;15.90;99.90
25628;DHT22;40915;50.826;4.356;2022-09-12T04:51:34;15.80;99.90
25628;DHT22;40915;50.826;4.356;2022-09-12T04:54:05;15.80;99.90
25628;DHT22;40915;50.826;4.356;2022-09-12T04:56:32;15.80;99.90
25628;DHT22;40915;50.826;4.356;2022-09-12T04:59:00;15.70;99.90
25628;DHT22;40915;50.826;4.356;2022-09-12T05:01:29;15.70;99.90
25628;DHT22;40915;50.826;4.356;2022-09-12T05:03:56;15.70;99.90
25628;DHT22;40915;50.826;4.356;2022-09-12T05:06:25;15.70;99.90
25628;DHT22;40915;50.826;4.356;2022-09-12T05:08:52;15.70;99.90
25628;DHT22;40915;50.826;4.356;2022-09-12T05:11:22;15.70;99.90
25628;DHT22;40915;50.826;4.356;2022-09-12T05:13:48;15.70;99.90
25628;DHT22;40915;50.826;4.356;2022-09-12T05:16:16;15.70;99.90
25628;DHT22;40915;50.826;4.356;2022-09-12T05:18:43;15.70;99.90
25628;DHT22;40915;50.826;4.356;2022-09-12T05:21:11;15.70;99.90
25628;DHT22;40915;50.826;4.356;2022-09-12T05:23:37;15.70;99.90
25628;DHT22;40915;50.826;4.356;2022-09-12T05:26:04;15.70;99.90
25628;DHT22;40915;50.826;4.356;2022-09-12T05:28:37;15.70;99.90
25628;DHT22;40915;50.826;4.356;2022-09-12T05:31:11;15.70;99.90
25628;DHT22;40915;50.826;4.356;2022-09-12T05:33:38;15.70;99.90
25628;DHT22;40915;50.826;4.356;2022-09-12T05:36:06;15.60;99.90
25628;DHT22;40915;50.826;4.356;2022-09-12T05:38:36;15.60;99.90
25628;DHT22;40915;50.826;4.356;2022-09-12T05:41:26;15.60;99.90
25628;DHT22;40915;50.826;4.356;2022-09-12T05:43:53;15.60;99.90
25628;DHT22;40915;50.826;4.356;2022-09-12T05:46:20;15.50;99.90
25628;DHT22;40915;50.826;4.356;2022-09-12T05:48:47;15.50;99.90
25628;DHT22;40915;50.826;4.356;2022-09-12T05:51:18;15.50;99.90
25628;DHT22;40915;50.826;4.356;2022-09-12T05:53:50;15.50;99.90
25628;DHT22;40915;50.826;4.356;2022-09-12T05:56:19;15.50;99.90
25628;DHT22;40915;50.826;4.356;2022-09-12T05:58:47;15.50;99.90
25628;DHT22;40915;50.826;4.356;2022-09-12T06:01:17;15.50;99.90
25628;DHT22;40915;50.826;4.356;2022-09-12T06:03:48;15.50;99.90
25628;DHT22;40915;50.826;4.356;2022-09-12T06:06:16;15.50;99.90
25628;DHT22;40915;50.826;4.356;2022-09-12T06:08:45;15.40;99.90
25628;DHT22;40915;50.826;4.356;2022-09-12T06:11:20;15.40;99.90
25628;DHT22;40915;50.826;4.356;2022-09-12T06:13:46;15.40;99.90
25628;DHT22;40915;50.826;4.356;2022-09-12T06:16:15;15.50;99.90
25628;DHT22;40915;50.826;4.356;2022-09-12T06:18:53;15.50;99.90
25628;DHT22;40915;50.826;4.356;2022-09-12T06:21:20;15.50;99.90
25628;DHT22;40915;50.826;4.356;2022-09-12T06:23:46;15.60;99.90
25628;DHT22;40915;50.826;4.356;2022-09-12T06:26:13;15.70;99.90
25628;DHT22;40915;50.826;4.356;2022-09-12T06:28:42;15.80;99.90
25628;DHT22;40915;50.826;4.356;2022-09-12T06:31:15;15.90;99.90
25628;DHT22;40915;50.826;4.356;2022-09-12T06:33:43;16.00;99.90
25628;DHT22;40915;50.826;4.356;2022-09-12T06:36:29;16.10;99.90
25628;DHT22;40915;50.826;4.356;2022-09-12T06:38:57;16.40;99.90
25628;DHT22;40915;50.826;4.356;2022-09-12T06:41:27;16.70;99.90
25628;DHT22;40915;50.826;4.356;2022-09-12T06:43:53;17.10;99.90
25628;DHT22;40915;50.826;4.356;2022-09-12T06:46:20;17.40;99.90
25628;DHT22;40915;50.826;4.356;2022-09-12T06:48:46;17.70;99.90
25628;DHT22;40915;50.826;4.356;2022-09-12T06:51:16;18.20;99.90
25628;DHT22;40915;50.826;4.356;2022-09-12T06:53:42;18.50;99.90
25628;DHT22;40915;50.826;4.356;2022-09-12T06:58:40;18.90;99.90
25628;DHT22;40915;50.826;4.356;2022-09-12T07:01:21;19.30;99.90
25628;DHT22;40915;50.826;4.356;2022-09-12T07:03:51;19.90;99.90
25628;DHT22;40915;50.826;4.356;2022-09-12T07:08:45;20.90;99.90
25628;DHT22;40915;50.826;4.356;2022-09-12T07:11:25;21.70;99.90
25628;DHT22;40915;50.826;4.356;2022-09-12T07:13:53;22.30;99.90
25628;DHT22;40915;50.826;4.356;2022-09-12T07:16:19;23.10;99.90
25628;DHT22;40915;50.826;4.356;2022-09-12T07:18:49;23.90;99.90
25628;DHT22;40915;50.826;4.356;2022-09-12T07:21:15;24.50;99.90
25628;DHT22;40915;50.826;4.356;2022-09-12T07:23:41;25.10;99.90
25628;DHT22;40915;50.826;4.356;2022-09-12T07:26:11;25.10;99.90
25628;DHT22;40915;50.826;4.356;2022-09-12T07:28:37;25.30;99.90
25628;DHT22;40915;50.826;4.356;2022-09-12T07:31:14;25.10;99.90
25628;DHT22;40915;50.826;4.356;2022-09-12T07:33:41;24.90;99.90
25628;DHT22;40915;50.826;4.356;2022-09-12T07:36:10;25.50;99.90
25628;DHT22;40915;50.826;4.356;2022-09-12T07:38:37;25.70;99.90
25628;DHT22;40915;50.826;4.356;2022-09-12T07:41:30;25.40;99.90
25628;DHT22;40915;50.826;4.356;2022-09-12T07:43:58;24.60;99.90
25628;DHT22;40915;50.826;4.356;2022-09-12T07:46:28;24.50;99.90
25628;DHT22;40915;50.826;4.356;2022-09-12T07:48:58;24.60;99.90
25628;DHT22;40915;50.826;4.356;2022-09-12T07:51:25;24.90;99.90
25628;DHT22;40915;50.826;4.356;2022-09-12T07:53:51;24.70;99.90
25628;DHT22;40915;50.826;4.356;2022-09-12T07:56:18;24.20;99.90
25628;DHT22;40915;50.826;4.356;2022-09-12T07:58:44;23.40;99.90
25628;DHT22;40915;50.826;4.356;2022-09-12T08:01:16;22.60;99.90
25628;DHT22;40915;50.826;4.356;2022-09-12T08:03:43;21.90;99.90
25628;DHT22;40915;50.826;4.356;2022-09-12T08:06:11;21.50;99.90
25628;DHT22;40915;50.826;4.356;2022-09-12T08:08:38;21.20;99.90
25628;DHT22;40915;50.826;4.356;2022-09-12T08:11:07;21.10;99.90
25628;DHT22;40915;50.826;4.356;2022-09-12T08:13:34;20.90;99.90
25628;DHT22;40915;50.826;4.356;2022-09-12T08:16:02;20.80;99.90
25628;DHT22;40915;50.826;4.356;2022-09-12T08:18:29;20.60;99.90
25628;DHT22;40915;50.826;4.356;2022-09-12T08:20:59;20.50;99.90
25628;DHT22;40915;50.826;4.356;2022-09-12T08:23:25;20.40;99.90
25628;DHT22;40915;50.826;4.356;2022-09-12T08:25:57;20.30;99.90
25628;DHT22;40915;50.826;4.356;2022-09-12T08:28:26;20.10;99.90
25628;DHT22;40915;50.826;4.356;2022-09-12T08:31:02;19.90;99.90
25628;DHT22;40915;50.826;4.356;2022-09-12T08:33:29;19.80;99.90
25628;DHT22;40915;50.826;4.356;2022-09-12T08:38:41;19.90;99.90
25628;DHT22;40915;50.826;4.356;2022-09-12T08:41:45;19.90;99.90
25628;DHT22;40915;50.826;4.356;2022-09-12T08:47:16;19.90;99.90
25628;DHT22;40915;50.826;4.356;2022-09-12T08:55:01;20.10;99.90
25628;DHT22;40915;50.826;4.356;2022-09-12T08:57:27;20.10;99.90
25628;DHT22;40915;50.826;4.356;2022-09-12T08:59:53;20.10;99.90
25628;DHT22;40915;50.826;4.356;2022-09-12T09:16:27;20.40;99.90
25628;DHT22;40915;50.826;4.356;2022-09-12T09:18:57;20.50;99.90
25628;DHT22;40915;50.826;4.356;2022-09-12T09:21:49;20.60;99.90
25628;DHT22;40915;50.826;4.356;2022-09-12T09:24:18;20.50;99.90
25628;DHT22;40915;50.826;4.356;2022-09-12T09:26:56;20.50;99.90
25628;DHT22;40915;50.826;4.356;2022-09-12T09:29:44;20.60;99.90
25628;DHT22;40915;50.826;4.356;2022-09-12T09:32:33;20.70;99.90
25628;DHT22;40915;50.826;4.356;2022-09-12T09:35:01;20.70;99.90
25628;DHT22;40915;50.826;4.356;2022-09-12T09:37:41;20.80;99.90
25628;DHT22;40915;50.826;4.356;2022-09-12T09:45:24;20.90;99.90
25628;DHT22;40915;50.826;4.356;2022-09-12T09:48:16;21.00;99.90
25628;DHT22;40915;50.826;4.356;2022-09-12T09:50:42;21.10;99.90
25628;DHT22;40915;50.826;4.356;2022-09-12T09:53:31;21.20;99.90
25628;DHT22;40915;50.826;4.356;2022-09-12T09:56:00;21.30;99.90
25628;DHT22;40915;50.826;4.356;2022-09-12T09:58:34;21.30;99.90
25628;DHT22;40915;50.826;4.356;2022-09-12T10:01:02;21.30;99.90
25628;DHT22;40915;50.826;4.356;2022-09-12T10:03:38;21.40;99.90
25628;DHT22;40915;50.826;4.356;2022-09-12T10:08:49;21.50;99.90
25628;DHT22;40915;50.826;4.356;2022-09-12T10:16:29;21.50;99.90
25628;DHT22;40915;50.826;4.356;2022-09-12T10:18:57;21.60;99.90
25628;DHT22;40915;50.826;4.356;2022-09-12T10:21:46;21.70;99.90
25628;DHT22;40915;50.826;4.356;2022-09-12T10:24:31;21.80;99.90
25628;DHT22;40915;50.826;4.356;2022-09-12T10:27:36;21.90;99.90
25628;DHT22;40915;50.826;4.356;2022-09-12T10:32:33;21.80;99.90
25628;DHT22;40915;50.826;4.356;2022-09-12T10:35:16;21.80;99.90
25628;DHT22;40915;50.826;4.356;2022-09-12T10:37:57;21.70;99.90
25628;DHT22;40915;50.826;4.356;2022-09-12T10:40:28;21.70;99.90
25628;DHT22;40915;50.826;4.356;2022-09-12T10:43:00;21.90;99.90
25628;DHT22;40915;50.826;4.356;2022-09-12T10:45:36;21.90;99.90
25628;DHT22;40915;50.826;4.356;2022-09-12T10:48:29;22.10;99.90
25628;DHT22;40915;50.826;4.356;2022-09-12T10:50:56;22.20;99.90
25628;DHT22;40915;50.826;4.356;2022-09-12T10:56:04;22.30;99.90
25628;DHT22;40915;50.826;4.356;2022-09-12T11:01:29;22.50;99.90
25628;DHT22;40915;50.826;4.356;2022-09-12T11:14:53;22.60;99.90
25628;DHT22;40915;50.826;4.356;2022-09-12T11:17:23;22.70;99.90
25628;DHT22;40915;50.826;4.356;2022-09-12T11:20:05;22.80;99.90
25628;DHT22;40915;50.826;4.356;2022-09-12T11:31:11;22.80;99.90
25628;DHT22;40915;50.826;4.356;2022-09-12T11:33:49;22.90;99.90
25628;DHT22;40915;50.826;4.356;2022-09-12T11:39:23;23.00;99.90
25628;DHT22;40915;50.826;4.356;2022-09-12T11:41:57;23.20;99.90
25628;DHT22;40915;50.826;4.356;2022-09-12T11:44:31;23.20;99.90
25628;DHT22;40915;50.826;4.356;2022-09-12T11:47:00;23.30;99.90
25628;DHT22;40915;50.826;4.356;2022-09-12T11:49:40;23.40;99.90
25628;DHT22;40915;50.826;4.356;2022-09-12T12:00:05;23.80;99.90
25628;DHT22;40915;50.826;4.356;2022-09-12T12:05:24;23.90;99.90
25628;DHT22;40915;50.826;4.356;2022-09-12T12:07:56;23.90;99.90
25628;DHT22;40915;50.826;4.356;2022-09-12T12:10:40;23.90;99.90
25628;DHT22;40915;50.826;4.356;2022-09-12T12:13:16;24.00;99.90
25628;DHT22;40915;50.826;4.356;2022-09-12T12:15:52;24.10;99.90
25628;DHT22;40915;50.826;4.356;2022-09-12T12:18:25;24.20;99.90
25628;DHT22;40915;50.826;4.356;2022-09-12T12:20:52;24.20;99.90
25628;DHT22;40915;50.826;4.356;2022-09-12T12:23:28;24.10;99.90
25628;DHT22;40915;50.826;4.356;2022-09-12T12:25:56;24.10;99.90
25628;DHT22;40915;50.826;4.356;2022-09-12T12:31:07;24.00;99.90
25628;DHT22;40915;50.826;4.356;2022-09-12T12:38:36;24.20;99.90
25628;DHT22;40915;50.826;4.356;2022-09-12T12:43:48;24.30;99.90
25628;DHT22;40915;50.826;4.356;2022-09-12T12:57:03;24.90;99.90
25628;DHT22;40915;50.826;4.356;2022-09-12T12:59:35;25.00;99.90
25628;DHT22;40915;50.826;4.356;2022-09-12T13:02:00;25.00;99.90
25628;DHT22;40915;50.826;4.356;2022-09-12T13:04:30;24.90;99.90
25628;DHT22;40915;50.826;4.356;2022-09-12T13:07:05;24.80;99.90
25628;DHT22;40915;50.826;4.356;2022-09-12T13:09:43;24.80;99.90
25628;DHT22;40915;50.826;4.356;2022-09-12T13:12:22;24.80;99.90
25628;DHT22;40915;50.826;4.356;2022-09-12T13:14:56;24.70;99.90
25628;DHT22;40915;50.826;4.356;2022-09-12T13:20:15;24.90;99.90
25628;DHT22;40915;50.826;4.356;2022-09-12T13:22:46;25.10;99.90
25628;DHT22;40915;50.826;4.356;2022-09-12T13:25:29;25.00;99.90
25628;DHT22;40915;50.826;4.356;2022-09-12T13:28:15;25.00;99.90
25628;DHT22;40915;50.826;4.356;2022-09-12T13:33:35;25.10;99.90
25628;DHT22;40915;50.826;4.356;2022-09-12T13:44:09;25.10;99.90
25628;DHT22;40915;50.826;4.356;2022-09-12T13:46:37;25.10;99.90
25628;DHT22;40915;50.826;4.356;2022-09-12T13:49:20;25.10;99.90
25628;DHT22;40915;50.826;4.356;2022-09-12T13:52:00;25.20;99.90
25628;DHT22;40915;50.826;4.356;2022-09-12T13:54:27;25.10;99.90
25628;DHT22;40915;50.826;4.356;2022-09-12T13:56:54;25.20;99.90
25628;DHT22;40915;50.826;4.356;2022-09-12T13:59:19;25.30;99.90
25628;DHT22;40915;50.826;4.356;2022-09-12T14:01:46;25.40;99.90
25628;DHT22;40915;50.826;4.356;2022-09-12T14:04:22;25.40;99.90
25628;DHT22;40915;50.826;4.356;2022-09-12T14:09:40;25.40;99.90
25628;DHT22;40915;50.826;4.356;2022-09-12T14:12:17;25.50;99.90
25628;DHT22;40915;50.826;4.356;2022-09-12T14:14:47;24.70;99.90
25628;DHT22;40915;50.826;4.356;2022-09-12T14:17:27;25.60;99.90
25628;DHT22;40915;50.826;4.356;2022-09-12T14:20:02;25.70;99.90
25628;DHT22;40915;50.826;4.356;2022-09-12T14:22:30;25.70;99.90
25628;DHT22;40915;50.826;4.356;2022-09-12T14:24:57;25.60;99.90
25628;DHT22;40915;50.826;4.356;2022-09-12T14:27:30;25.60;99.90
25628;DHT22;40915;50.826;4.356;2022-09-12T14:30:05;25.60;99.90
25628;DHT22;40915;50.826;4.356;2022-09-12T14:32:33;25.60;99.90
25628;DHT22;40915;50.826;4.356;2022-09-12T14:35:16;25.60;99.90
25628;DHT22;40915;50.826;4.356;2022-09-12T14:37:45;25.60;99.90
25628;DHT22;40915;50.826;4.356;2022-09-12T14:42:47;25.90;99.90
25628;DHT22;40915;50.826;4.356;2022-09-12T14:45:28;26.10;99.90
25628;DHT22;40915;50.826;4.356;2022-09-12T14:47:56;26.10;99.90
25628;DHT22;40915;50.826;4.356;2022-09-12T14:50:25;26.00;99.90
25628;DHT22;40915;50.826;4.356;2022-09-12T14:53:25;26.00;99.90
25628;DHT22;40915;50.826;4.356;2022-09-12T14:56:09;26.30;99.90
25628;DHT22;40915;50.826;4.356;2022-09-12T14:58:50;26.40;99.90
25628;DHT22;40915;50.826;4.356;2022-09-12T15:08:48;25.90;99.90
25628;DHT22;40915;50.826;4.356;2022-09-12T15:11:13;25.80;99.90
25628;DHT22;40915;50.826;4.356;2022-09-12T15:13:40;25.80;99.90
25628;DHT22;40915;50.826;4.356;2022-09-12T15:16:08;25.80;99.90
25628;DHT22;40915;50.826;4.356;2022-09-12T15:18:35;25.90;99.90
25628;DHT22;40915;50.826;4.356;2022-09-12T15:21:02;25.90;99.90
25628;DHT22;40915;50.826;4.356;2022-09-12T15:23:34;25.90;99.90
25628;DHT22;40915;50.826;4.356;2022-09-12T15:26:01;25.90;99.90
25628;DHT22;40915;50.826;4.356;2022-09-12T15:28:28;25.80;99.90
25628;DHT22;40915;50.826;4.356;2022-09-12T15:30:55;25.70;99.90
25628;DHT22;40915;50.826;4.356;2022-09-12T15:33:23;25.70;99.90
25628;DHT22;40915;50.826;4.356;2022-09-12T15:35:50;25.70;99.90
25628;DHT22;40915;50.826;4.356;2022-09-12T15:38:16;25.70;99.90
25628;DHT22;40915;50.826;4.356;2022-09-12T15:40:43;25.70;99.90
25628;DHT22;40915;50.826;4.356;2022-09-12T15:43:11;25.70;99.90
25628;DHT22;40915;50.826;4.356;2022-09-12T15:45:37;25.70;99.90
25628;DHT22;40915;50.826;4.356;2022-09-12T15:48:03;25.70;99.90
25628;DHT22;40915;50.826;4.356;2022-09-12T15:50:29;25.70;99.90
25628;DHT22;40915;50.826;4.356;2022-09-12T15:52:55;25.70;99.90
25628;DHT22;40915;50.826;4.356;2022-09-12T15:55:27;25.60;99.90
25628;DHT22;40915;50.826;4.356;2022-09-12T15:57:53;25.70;99.90
25628;DHT22;40915;50.826;4.356;2022-09-12T16:00:19;25.70;99.90
25628;DHT22;40915;50.826;4.356;2022-09-12T16:02:46;25.60;99.90
25628;DHT22;40915;50.826;4.356;2022-09-12T16:05:16;25.60;99.90
25628;DHT22;40915;50.826;4.356;2022-09-12T16:07:43;25.60;99.90
25628;DHT22;40915;50.826;4.356;2022-09-12T16:10:17;25.50;99.90
25628;DHT22;40915;50.826;4.356;2022-09-12T16:12:43;25.30;99.90
25628;DHT22;40915;50.826;4.356;2022-09-12T16:15:16;25.10;99.90
25628;DHT22;40915;50.826;4.356;2022-09-12T16:17:43;25.10;99.90
25628;DHT22;40915;50.826;4.356;2022-09-12T16:20:09;25.00;99.90
25628;DHT22;40915;50.826;4.356;2022-09-12T16:22:35;24.90;99.90
25628;DHT22;40915;50.826;4.356;2022-09-12T16:25:01;24.90;99.90
25628;DHT22;40915;50.826;4.356;2022-09-12T16:27:27;24.90;99.90
25628;DHT22;40915;50.826;4.356;2022-09-12T16:29:53;24.90;99.90
25628;DHT22;40915;50.826;4.356;2022-09-12T16:32:18;24.90;99.90
25628;DHT22;40915;50.826;4.356;2022-09-12T16:34:44;25.00;99.90
25628;DHT22;40915;50.826;4.356;2022-09-12T16:37:10;25.00;99.90
25628;DHT22;40915;50.826;4.356;2022-09-12T16:39:35;25.00;99.90
25628;DHT22;40915;50.826;4.356;2022-09-12T16:42:01;25.10;99.90
25628;DHT22;40915;50.826;4.356;2022-09-12T16:44:27;25.10;99.90
25628;DHT22;40915;50.826;4.356;2022-09-12T16:46:52;25.10;99.90
25628;DHT22;40915;50.826;4.356;2022-09-12T16:49:18;25.10;99.90
25628;DHT22;40915;50.826;4.356;2022-09-12T16:51:44;25.10;99.90
25628;DHT22;40915;50.826;4.356;2022-09-12T16:54:13;25.10;99.90
25628;DHT22;40915;50.826;4.356;2022-09-12T16:56:39;25.10;99.90
25628;DHT22;40915;50.826;4.356;2022-09-12T16:59:05;25.00;99.90
25628;DHT22;40915;50.826;4.356;2022-09-12T17:01:31;25.00;99.90
25628;DHT22;40915;50.826;4.356;2022-09-12T17:03:59;24.90;99.90
25628;DHT22;40915;50.826;4.356;2022-09-12T17:06:25;24.90;99.90
25628;DHT22;40915;50.826;4.356;2022-09-12T17:08:53;24.80;99.90
25628;DHT22;40915;50.826;4.356;2022-09-12T17:11:27;24.70;99.90
25628;DHT22;40915;50.826;4.356;2022-09-12T17:13:56;24.70;99.90
25628;DHT22;40915;50.826;4.356;2022-09-12T17:16:22;24.60;99.90
25628;DHT22;40915;50.826;4.356;2022-09-12T17:18:49;24.60;99.90
25628;DHT22;40915;50.826;4.356;2022-09-12T17:21:15;24.60;99.90
25628;DHT22;40915;50.826;4.356;2022-09-12T17:23:41;24.50;99.90
25628;DHT22;40915;50.826;4.356;2022-09-12T17:26:08;24.40;99.90
25628;DHT22;40915;50.826;4.356;2022-09-12T17:28:35;24.40;99.90
25628;DHT22;40915;50.826;4.356;2022-09-12T17:31:03;24.30;99.90
25628;DHT22;40915;50.826;4.356;2022-09-12T17:33:29;24.20;99.90
25628;DHT22;40915;50.826;4.356;2022-09-12T17:35:59;24.20;99.90
25628;DHT22;40915;50.826;4.356;2022-09-12T17:38:25;24.10;99.90
25628;DHT22;40915;50.826;4.356;2022-09-12T17:40:50;24.10;99.90
25628;DHT22;40915;50.826;4.356;2022-09-12T17:43:16;24.00;99.90
25628;DHT22;40915;50.826;4.356;2022-09-12T17:45:41;23.90;99.90
25628;DHT22;40915;50.826;4.356;2022-09-12T17:48:09;23.90;99.90
25628;DHT22;40915;50.826;4.356;2022-09-12T17:50:36;23.80;99.90
25628;DHT22;40915;50.826;4.356;2022-09-12T17:53:02;23.80;99.90
25628;DHT22;40915;50.826;4.356;2022-09-12T17:55:28;23.70;99.90
25628;DHT22;40915;50.826;4.356;2022-09-12T17:58:00;23.70;99.90
25628;DHT22;40915;50.826;4.356;2022-09-12T18:00:26;23.60;99.90
25628;DHT22;40915;50.826;4.356;2022-09-12T18:03:11;23.60;99.90
25628;DHT22;40915;50.826;4.356;2022-09-12T18:05:44;23.50;99.90
25628;DHT22;40915;50.826;4.356;2022-09-12T18:08:10;23.40;99.90
25628;DHT22;40915;50.826;4.356;2022-09-12T18:10:36;23.40;99.90
25628;DHT22;40915;50.826;4.356;2022-09-12T18:13:02;23.30;99.90
25628;DHT22;40915;50.826;4.356;2022-09-12T18:15:27;23.30;99.90
25628;DHT22;40915;50.826;4.356;2022-09-12T18:17:53;23.20;99.90
25628;DHT22;40915;50.826;4.356;2022-09-12T18:20:18;23.20;99.90
25628;DHT22;40915;50.826;4.356;2022-09-12T18:22:48;23.20;99.90
25628;DHT22;40915;50.826;4.356;2022-09-12T18:25:13;23.10;99.90
25628;DHT22;40915;50.826;4.356;2022-09-12T18:27:39;23.10;99.90
25628;DHT22;40915;50.826;4.356;2022-09-12T18:30:05;23.00;99.90
25628;DHT22;40915;50.826;4.356;2022-09-12T18:32:31;23.00;99.90
25628;DHT22;40915;50.826;4.356;2022-09-12T18:34:56;22.90;99.90
25628;DHT22;40915;50.826;4.356;2022-09-12T18:37:22;22.90;99.90
25628;DHT22;40915;50.826;4.356;2022-09-12T18:39:47;22.80;99.90
25628;DHT22;40915;50.826;4.356;2022-09-12T18:42:13;22.80;99.90
25628;DHT22;40915;50.826;4.356;2022-09-12T18:44:39;22.80;99.90
25628;DHT22;40915;50.826;4.356;2022-09-12T18:47:05;22.80;99.90
25628;DHT22;40915;50.826;4.356;2022-09-12T18:49:30;22.70;99.90